createdAt,value
2022-12-03T00:01:52.663Z,42.60
2022-12-03T00:04:54.840Z,35.00
2022-12-03T00:07:57.167Z,33.10
2022-12-03T00:10:59.102Z,31.47
2022-12-03T00:14:01.022Z,38.97
2022-12-03T00:17:03.055Z,34.70
2022-12-03T00:20:07.531Z,33.05
2022-12-03T00:23:09.411Z,33.25
2022-12-03T00:26:11.261Z,28.67
2022-12-03T00:29:13.212Z,31.17
2022-12-03T00:32:15.083Z,29.08
2022-12-03T00:35:16.988Z,28.77
2022-12-03T00:38:18.888Z,28.60
2022-12-03T00:41:20.814Z,27.73
2022-12-03T00:44:22.754Z,28.60
2022-12-03T00:47:24.981Z,33.25
2022-12-03T00:50:26.911Z,37.47
2022-12-03T00:53:28.875Z,35.25
2022-12-03T00:56:30.772Z,39.70
2022-12-03T00:59:32.700Z,38.60
2022-12-03T01:02:34.562Z,39.28
2022-12-03T01:05:36.742Z,35.75
2022-12-03T01:08:38.633Z,39.03
2022-12-03T01:11:41.493Z,37.42
2022-12-03T01:14:43.832Z,39.57
2022-12-03T01:17:45.799Z,35.25
2022-12-03T01:20:47.736Z,38.15
2022-12-03T01:23:49.647Z,38.10
2022-12-03T01:47:44.158Z,30.65
2022-12-03T01:50:46.540Z,31.13
2022-12-03T01:53:48.906Z,31.17
2022-12-03T01:56:51.075Z,30.10
2022-12-03T01:59:55.105Z,29.48
2022-12-03T02:03:00.230Z,31.40
2022-12-03T02:06:02.168Z,33.83
2022-12-03T02:09:04.416Z,30.83
2022-12-03T02:12:06.496Z,37.10
2022-12-03T02:15:10.350Z,33.65
2022-12-03T02:18:12.300Z,34.33
2022-12-03T02:21:18.972Z,36.63
2022-12-03T02:24:29.868Z,31.90
2022-12-03T02:27:31.706Z,30.92
2022-12-03T02:30:34.286Z,28.88
2022-12-03T02:33:36.387Z,28.63
2022-12-03T02:36:39.136Z,30.20
2022-12-03T02:39:46.335Z,30.17
2022-12-03T02:42:50.728Z,25.88
2022-12-03T02:45:56.402Z,26.33
2022-12-03T02:48:59.156Z,24.48
2022-12-03T02:52:01.030Z,29.97
2022-12-03T02:55:05.779Z,26.57
2022-12-03T02:58:07.748Z,32.10
2022-12-03T03:01:10.709Z,27.05
2022-12-03T03:04:12.581Z,29.65
2022-12-03T03:07:15.093Z,27.97
2022-12-03T03:10:23.479Z,30.57
2022-12-03T03:13:25.831Z,28.98
2022-12-03T03:16:27.843Z,31.52
2022-12-03T03:19:30.612Z,29.25
2022-12-03T03:22:38.538Z,34.47
2022-12-03T03:25:44.167Z,32.03
2022-12-03T03:28:50.037Z,29.80
2022-12-03T03:31:52.074Z,29.63
2022-12-03T03:34:56.251Z,29.88
2022-12-03T03:37:58.859Z,28.67
2022-12-03T03:41:03.593Z,26.70
2022-12-03T03:44:07.611Z,29.23
2022-12-03T03:47:09.780Z,29.52
2022-12-03T03:50:13.295Z,24.25
2022-12-03T03:53:15.956Z,30.07
2022-12-03T03:56:19.388Z,28.53
2022-12-03T03:59:21.630Z,29.45
2022-12-03T04:02:25.268Z,24.48
2022-12-03T04:05:28.070Z,30.50
2022-12-03T04:08:30.444Z,28.67
2022-12-03T04:11:51.906Z,27.70
2022-12-03T04:14:54.410Z,29.02
2022-12-03T04:18:15.229Z,32.42
2022-12-03T04:21:38.571Z,28.27
2022-12-03T04:24:40.400Z,28.15
2022-12-03T04:28:00.505Z,29.03
2022-12-03T04:31:22.419Z,27.25
2022-12-03T04:34:43.047Z,28.02
2022-12-03T04:37:45.014Z,34.22
2022-12-03T04:41:02.044Z,26.93
2022-12-03T04:44:22.552Z,30.43
2022-12-03T04:47:24.379Z,30.65
2022-12-03T04:50:26.172Z,32.42
2022-12-03T04:53:28.037Z,29.67
2022-12-03T04:56:29.863Z,32.23
2022-12-03T04:59:32.399Z,30.83
2022-12-03T05:02:34.391Z,27.38
2022-12-03T05:05:36.367Z,26.58
2022-12-03T05:08:38.239Z,29.05
2022-12-03T05:11:41.572Z,32.37
2022-12-03T05:14:43.388Z,28.90
2022-12-03T05:17:45.255Z,26.02
2022-12-03T05:20:52.949Z,27.80
2022-12-03T05:23:55.667Z,27.77
2022-12-03T05:26:57.493Z,28.40
2022-12-03T05:29:59.316Z,30.07
2022-12-03T05:33:01.320Z,27.67
2022-12-03T05:36:03.321Z,28.17
2022-12-03T05:39:05.135Z,26.45
2022-12-03T05:42:25.741Z,28.40
2022-12-03T05:45:30.193Z,29.57
2022-12-03T05:48:32.025Z,25.52
2022-12-03T05:51:34.092Z,62.92
2022-12-03T05:54:35.913Z,61.65
2022-12-03T05:57:38.364Z,60.72
2022-12-03T06:00:42.731Z,57.50
2022-12-03T06:03:45.076Z,56.10
2022-12-03T06:06:47.123Z,46.17
2022-12-03T06:24:34.087Z,24.48
2022-12-03T06:27:36.152Z,31.63
2022-12-03T06:30:38.027Z,28.02
2022-12-03T06:33:39.899Z,32.85
2022-12-03T06:36:41.845Z,37.80
2022-12-03T06:39:44.102Z,23.30
2022-12-03T06:42:45.916Z,26.20
2022-12-03T06:45:48.179Z,33.58
2022-12-03T06:48:50.137Z,40.20
2022-12-03T06:51:52.064Z,35.57
2022-12-03T06:54:54.281Z,83.28
2022-12-03T06:57:56.427Z,102.88
2022-12-03T07:00:58.315Z,58.45
2022-12-03T07:04:00.299Z,27.63
2022-12-03T07:07:02.194Z,25.17
2022-12-03T07:10:05.104Z,29.05
2022-12-03T07:13:06.988Z,25.98
2022-12-03T07:16:09.647Z,27.75
2022-12-03T07:19:12.865Z,23.50
2022-12-03T07:22:14.993Z,31.97
2022-12-03T07:25:22.598Z,31.55
2022-12-03T07:28:25.181Z,26.08
2022-12-03T07:31:27.350Z,27.65
2022-12-03T07:34:30.075Z,25.15
2022-12-03T07:37:31.939Z,24.37
2022-12-03T07:40:33.863Z,27.17
2022-12-03T07:43:35.664Z,26.35
2022-12-03T07:46:37.544Z,27.13
2022-12-03T07:49:39.530Z,26.97
2022-12-03T07:52:41.491Z,18.50
2022-12-03T07:55:43.367Z,25.25
2022-12-03T07:58:45.320Z,27.05
2022-12-03T08:01:48.008Z,28.95
2022-12-03T08:04:49.923Z,26.83
2022-12-03T08:07:51.824Z,27.30
2022-12-03T08:10:53.688Z,22.30
2022-12-03T08:13:56.678Z,23.08
2022-12-03T08:16:58.603Z,27.83
2022-12-03T08:20:00.511Z,25.52
2022-12-03T08:23:07.261Z,30.03
2022-12-03T08:26:28.084Z,26.17
2022-12-03T08:29:31.279Z,30.08
2022-12-03T08:32:33.159Z,27.60
2022-12-03T08:35:35.098Z,28.85
2022-12-03T08:38:37.317Z,29.03
2022-12-03T08:41:57.554Z,37.28
2022-12-03T08:45:45.176Z,34.88
2022-12-03T08:49:27.013Z,32.83
2022-12-03T08:52:33.974Z,27.65
2022-12-03T08:55:37.790Z,21.07
2022-12-03T08:58:42.999Z,25.88
2022-12-03T09:01:47.189Z,27.98
2022-12-03T09:04:49.032Z,31.20
2022-12-03T09:07:58.398Z,29.27
2022-12-03T09:11:01.273Z,30.83
2022-12-03T09:14:04.047Z,31.67
2022-12-03T09:17:05.998Z,32.65
2022-12-03T09:20:08.353Z,32.25
2022-12-03T09:23:10.308Z,32.03
2022-12-03T09:26:12.175Z,30.77
2022-12-03T09:29:14.504Z,25.33
2022-12-03T09:32:18.585Z,45.63
2022-12-03T09:35:20.881Z,25.90
2022-12-03T09:38:22.752Z,26.48
2022-12-03T09:41:26.768Z,27.50
2022-12-03T09:44:30.140Z,29.65
2022-12-03T09:47:32.791Z,28.77
2022-12-03T09:50:41.023Z,31.98
2022-12-03T09:53:43.574Z,26.73
2022-12-03T09:56:45.471Z,30.40
2022-12-03T09:59:47.610Z,33.00
2022-12-03T10:02:51.639Z,34.28
2022-12-03T10:05:55.031Z,30.33
2022-12-03T10:08:59.993Z,31.38
2022-12-03T10:12:01.877Z,32.50
2022-12-03T10:15:04.104Z,35.40
2022-12-03T10:18:18.328Z,34.10
2022-12-03T10:21:28.835Z,33.75
2022-12-03T10:24:33.525Z,32.35
2022-12-03T10:27:35.485Z,39.87
2022-12-03T10:30:38.347Z,33.80
2022-12-03T10:33:44.864Z,32.67
2022-12-03T10:36:46.815Z,27.83
2022-12-03T10:40:08.548Z,26.20
2022-12-03T10:43:17.887Z,27.80
2022-12-03T10:46:22.901Z,27.70
2022-12-03T10:49:24.855Z,26.92
2022-12-03T10:52:27.288Z,25.23
2022-12-03T10:55:38.627Z,31.85
2022-12-03T10:58:41.048Z,23.20
2022-12-03T11:01:43.176Z,25.80
2022-12-03T11:04:45.175Z,27.23
2022-12-03T11:07:47.571Z,31.25
2022-12-03T11:11:01.082Z,29.80
2022-12-03T11:14:04.811Z,30.57
2022-12-03T11:17:07.620Z,30.20
2022-12-03T11:20:24.701Z,30.00
2022-12-03T11:23:44.730Z,24.70
2022-12-03T11:26:46.523Z,28.60
2022-12-03T11:29:58.845Z,29.57
2022-12-03T11:33:01.419Z,20.95
2022-12-03T11:36:03.222Z,27.42
2022-12-03T11:39:05.071Z,20.98
2022-12-03T11:42:27.120Z,19.27
2022-12-03T11:45:33.418Z,22.73
2022-12-03T11:48:44.847Z,21.45
2022-12-03T11:51:47.169Z,24.42
2022-12-03T11:54:53.947Z,24.50
2022-12-03T11:58:02.153Z,25.00
2022-12-03T12:01:07.084Z,22.70
2022-12-03T12:04:37.977Z,19.75
2022-12-03T12:07:40.050Z,27.02
2022-12-03T12:10:43.391Z,22.30
2022-12-03T17:15:41.604Z,60.67
2022-12-03T17:18:43.629Z,65.27
2022-12-03T17:21:45.628Z,63.88
2022-12-03T17:24:47.424Z,65.50
2022-12-03T17:27:49.368Z,64.65
2022-12-03T17:30:51.511Z,69.60
2022-12-03T17:33:57.329Z,65.60
2022-12-03T17:36:59.399Z,65.93
2022-12-03T17:40:01.610Z,56.70
2022-12-03T17:43:03.595Z,36.35
2022-12-03T17:46:06.745Z,32.65
2022-12-03T17:49:08.938Z,35.37
2022-12-03T17:52:11.031Z,31.02
2022-12-03T17:55:19.816Z,30.73
2022-12-03T17:58:28.612Z,28.48
2022-12-03T18:01:31.025Z,27.73
2022-12-03T18:04:33.219Z,33.50
2022-12-03T18:07:35.208Z,29.88
2022-12-03T18:10:37.694Z,27.27
2022-12-03T18:13:39.577Z,28.08
2022-12-03T18:16:41.563Z,22.80
2022-12-03T18:19:43.738Z,26.30
2022-12-03T18:22:45.833Z,26.58
2022-12-03T18:25:47.756Z,28.70
2022-12-03T18:28:50.042Z,28.90
2022-12-03T18:31:52.488Z,38.58
2022-12-03T18:34:55.151Z,29.10
2022-12-03T18:37:57.083Z,32.97
2022-12-03T18:40:59.599Z,26.08
2022-12-03T18:44:03.977Z,27.08
2022-12-03T18:47:12.673Z,29.40
2022-12-03T18:50:14.962Z,25.33
2022-12-03T18:53:19.090Z,54.40
2022-12-03T18:56:21.292Z,78.07
2022-12-03T18:59:23.271Z,58.78
2022-12-03T19:03:01.154Z,57.15
2022-12-03T19:05:47.436Z,50.33
2022-12-03T19:08:53.961Z,46.10
2022-12-03T19:11:56.129Z,40.10
